sensor_id;sensor_type;location;lat;lon;timestamp;temperature;humidity
9118;DHT22;4594;50.994;7.126;2023-04-06T00:01:48;4.20;29.20
9118;DHT22;4594;50.994;7.126;2023-04-06T00:04:14;4.20;29.20
9118;DHT22;4594;50.994;7.126;2023-04-06T00:06:40;4.20;29.20
9118;DHT22;4594;50.994;7.126;2023-04-06T00:09:05;4.10;29.10
9118;DHT22;4594;50.994;7.126;2023-04-06T00:11:31;4.10;29.10
9118;DHT22;4594;50.994;7.126;2023-04-06T00:13:57;4.10;29.10
9118;DHT22;4594;50.994;7.126;2023-04-06T00:16:22;4.10;29.10
9118;DHT22;4594;50.994;7.126;2023-04-06T00:18:48;4.10;29.20
9118;DHT22;4594;50.994;7.126;2023-04-06T00:21:14;4.10;29.20
9118;DHT22;4594;50.994;7.126;2023-04-06T00:23:41;4.00;29.10
9118;DHT22;4594;50.994;7.126;2023-04-06T00:26:08;4.00;29.20
9118;DHT22;4594;50.994;7.126;2023-04-06T00:28:34;4.00;29.20
9118;DHT22;4594;50.994;7.126;2023-04-06T00:31:00;4.00;29.20
9118;DHT22;4594;50.994;7.126;2023-04-06T00:33:25;4.00;29.20
9118;DHT22;4594;50.994;7.126;2023-04-06T00:36:10;4.00;29.20
9118;DHT22;4594;50.994;7.126;2023-04-06T00:38:36;4.00;29.20
9118;DHT22;4594;50.994;7.126;2023-04-06T00:41:03;4.00;29.20
9118;DHT22;4594;50.994;7.126;2023-04-06T00:43:30;4.00;29.30
9118;DHT22;4594;50.994;7.126;2023-04-06T00:45:56;4.00;29.30
9118;DHT22;4594;50.994;7.126;2023-04-06T00:48:22;3.90;29.20
9118;DHT22;4594;50.994;7.126;2023-04-06T00:50:48;3.90;29.20
9118;DHT22;4594;50.994;7.126;2023-04-06T00:53:14;3.90;29.20
9118;DHT22;4594;50.994;7.126;2023-04-06T00:55:40;3.90;29.20
9118;DHT22;4594;50.994;7.126;2023-04-06T00:58:05;3.90;29.20
9118;DHT22;4594;50.994;7.126;2023-04-06T01:00:32;3.90;29.20
9118;DHT22;4594;50.994;7.126;2023-04-06T01:02:58;3.90;29.30
9118;DHT22;4594;50.994;7.126;2023-04-06T01:05:23;3.90;29.30
9118;DHT22;4594;50.994;7.126;2023-04-06T01:07:49;4.00;29.30
9118;DHT22;4594;50.994;7.126;2023-04-06T01:10:25;4.00;29.30
9118;DHT22;4594;50.994;7.126;2023-04-06T01:12:52;4.00;29.40
9118;DHT22;4594;50.994;7.126;2023-04-06T01:15:18;4.00;29.30
9118;DHT22;4594;50.994;7.126;2023-04-06T01:17:45;4.10;29.40
9118;DHT22;4594;50.994;7.126;2023-04-06T01:20:10;4.10;29.40
9118;DHT22;4594;50.994;7.126;2023-04-06T01:22:36;4.10;29.30
9118;DHT22;4594;50.994;7.126;2023-04-06T01:25:02;4.10;29.30
9118;DHT22;4594;50.994;7.126;2023-04-06T01:27:28;4.10;29.30
9118;DHT22;4594;50.994;7.126;2023-04-06T01:29:55;4.10;29.30
9118;DHT22;4594;50.994;7.126;2023-04-06T01:32:21;4.20;29.40
9118;DHT22;4594;50.994;7.126;2023-04-06T01:34:46;4.10;29.30
9118;DHT22;4594;50.994;7.126;2023-04-06T01:37:12;4.10;29.30
9118;DHT22;4594;50.994;7.126;2023-04-06T01:39:38;4.10;29.30
9118;DHT22;4594;50.994;7.126;2023-04-06T01:42:03;4.10;29.30
9118;DHT22;4594;50.994;7.126;2023-04-06T01:44:29;4.10;29.30
9118;DHT22;4594;50.994;7.126;2023-04-06T01:46:56;4.10;29.40
9118;DHT22;4594;50.994;7.126;2023-04-06T01:49:22;4.10;29.40
9118;DHT22;4594;50.994;7.126;2023-04-06T01:51:47;4.10;29.60
9118;DHT22;4594;50.994;7.126;2023-04-06T01:54:13;4.10;29.40
9118;DHT22;4594;50.994;7.126;2023-04-06T01:56:39;4.10;29.40
9118;DHT22;4594;50.994;7.126;2023-04-06T01:59:05;4.10;29.40
9118;DHT22;4594;50.994;7.126;2023-04-06T02:01:31;4.10;29.40
9118;DHT22;4594;50.994;7.126;2023-04-06T02:03:57;4.10;29.40
9118;DHT22;4594;50.994;7.126;2023-04-06T02:06:22;4.20;29.40
9118;DHT22;4594;50.994;7.126;2023-04-06T02:08:48;4.20;29.40
9118;DHT22;4594;50.994;7.126;2023-04-06T02:11:14;4.20;29.40
9118;DHT22;4594;50.994;7.126;2023-04-06T02:13:40;4.20;29.40
9118;DHT22;4594;50.994;7.126;2023-04-06T02:16:05;4.20;29.40
9118;DHT22;4594;50.994;7.126;2023-04-06T02:18:31;4.20;29.40
9118;DHT22;4594;50.994;7.126;2023-04-06T02:20:57;4.20;29.40
9118;DHT22;4594;50.994;7.126;2023-04-06T02:23:23;4.10;29.40
9118;DHT22;4594;50.994;7.126;2023-04-06T02:25:48;4.10;29.40
9118;DHT22;4594;50.994;7.126;2023-04-06T02:28:14;4.10;29.40
9118;DHT22;4594;50.994;7.126;2023-04-06T02:30:40;4.10;29.40
9118;DHT22;4594;50.994;7.126;2023-04-06T02:33:05;4.00;29.30
9118;DHT22;4594;50.994;7.126;2023-04-06T02:35:31;4.00;29.40
9118;DHT22;4594;50.994;7.126;2023-04-06T02:37:57;4.00;29.40
9118;DHT22;4594;50.994;7.126;2023-04-06T02:40:23;3.90;29.30
9118;DHT22;4594;50.994;7.126;2023-04-06T02:42:49;3.90;29.40
9118;DHT22;4594;50.994;7.126;2023-04-06T02:45:14;3.80;29.30
9118;DHT22;4594;50.994;7.126;2023-04-06T02:47:40;3.80;29.30
9118;DHT22;4594;50.994;7.126;2023-04-06T02:50:06;3.80;29.30
9118;DHT22;4594;50.994;7.126;2023-04-06T02:52:32;3.80;29.40
9118;DHT22;4594;50.994;7.126;2023-04-06T02:54:58;3.80;29.40
9118;DHT22;4594;50.994;7.126;2023-04-06T02:57:24;3.70;29.40
9118;DHT22;4594;50.994;7.126;2023-04-06T02:59:49;3.70;29.40
9118;DHT22;4594;50.994;7.126;2023-04-06T03:02:15;3.70;29.40
9118;DHT22;4594;50.994;7.126;2023-04-06T03:04:42;3.70;29.40
9118;DHT22;4594;50.994;7.126;2023-04-06T03:07:09;3.70;29.40
9118;DHT22;4594;50.994;7.126;2023-04-06T03:09:37;3.70;29.40
9118;DHT22;4594;50.994;7.126;2023-04-06T03:12:03;3.60;29.40
9118;DHT22;4594;50.994;7.126;2023-04-06T03:14:29;3.60;29.40
9118;DHT22;4594;50.994;7.126;2023-04-06T03:16:55;3.60;29.40
9118;DHT22;4594;50.994;7.126;2023-04-06T03:19:20;3.60;29.40
9118;DHT22;4594;50.994;7.126;2023-04-06T03:21:46;3.60;29.70
9118;DHT22;4594;50.994;7.126;2023-04-06T03:24:12;3.50;29.40
9118;DHT22;4594;50.994;7.126;2023-04-06T03:26:39;3.50;29.40
9118;DHT22;4594;50.994;7.126;2023-04-06T03:29:05;3.50;29.40
9118;DHT22;4594;50.994;7.126;2023-04-06T03:31:30;3.50;29.40
9118;DHT22;4594;50.994;7.126;2023-04-06T03:33:56;3.50;29.40
9118;DHT22;4594;50.994;7.126;2023-04-06T03:36:22;3.50;29.40
9118;DHT22;4594;50.994;7.126;2023-04-06T03:38:47;3.40;29.40
9118;DHT22;4594;50.994;7.126;2023-04-06T03:41:13;3.40;29.40
9118;DHT22;4594;50.994;7.126;2023-04-06T03:43:39;3.40;29.40
9118;DHT22;4594;50.994;7.126;2023-04-06T03:46:04;3.40;29.50
9118;DHT22;4594;50.994;7.126;2023-04-06T03:48:30;3.40;29.50
9118;DHT22;4594;50.994;7.126;2023-04-06T03:50:56;3.40;29.50
9118;DHT22;4594;50.994;7.126;2023-04-06T03:53:22;3.40;29.50
9118;DHT22;4594;50.994;7.126;2023-04-06T03:55:47;3.40;29.50
9118;DHT22;4594;50.994;7.126;2023-04-06T03:58:13;3.40;29.50
9118;DHT22;4594;50.994;7.126;2023-04-06T04:00:39;3.40;29.50
9118;DHT22;4594;50.994;7.126;2023-04-06T04:03:04;3.40;29.50
9118;DHT22;4594;50.994;7.126;2023-04-06T04:05:30;3.40;29.50
9118;DHT22;4594;50.994;7.126;2023-04-06T04:07:56;3.30;29.50
9118;DHT22;4594;50.994;7.126;2023-04-06T04:10:21;3.30;29.70
9118;DHT22;4594;50.994;7.126;2023-04-06T04:12:47;3.30;29.50
9118;DHT22;4594;50.994;7.126;2023-04-06T04:15:13;3.30;29.50
9118;DHT22;4594;50.994;7.126;2023-04-06T04:17:38;3.30;29.50
9118;DHT22;4594;50.994;7.126;2023-04-06T04:20:04;3.40;29.60
9118;DHT22;4594;50.994;7.126;2023-04-06T04:22:31;3.40;29.60
9118;DHT22;4594;50.994;7.126;2023-04-06T04:24:57;3.40;29.70
9118;DHT22;4594;50.994;7.126;2023-04-06T04:27:22;3.50;29.70
9118;DHT22;4594;50.994;7.126;2023-04-06T04:29:48;3.50;29.70
9118;DHT22;4594;50.994;7.126;2023-04-06T04:32:14;3.50;29.70
9118;DHT22;4594;50.994;7.126;2023-04-06T04:34:40;3.50;29.70
9118;DHT22;4594;50.994;7.126;2023-04-06T04:37:06;3.60;29.70
9118;DHT22;4594;50.994;7.126;2023-04-06T04:39:32;3.60;29.70
9118;DHT22;4594;50.994;7.126;2023-04-06T04:41:58;3.60;29.70
9118;DHT22;4594;50.994;7.126;2023-04-06T04:44:24;3.60;29.70
9118;DHT22;4594;50.994;7.126;2023-04-06T04:46:49;3.70;29.70
9118;DHT22;4594;50.994;7.126;2023-04-06T04:49:15;3.80;29.80
9118;DHT22;4594;50.994;7.126;2023-04-06T04:51:41;3.80;29.70
9118;DHT22;4594;50.994;7.126;2023-04-06T04:54:06;3.80;29.70
9118;DHT22;4594;50.994;7.126;2023-04-06T04:56:32;3.90;29.70
9118;DHT22;4594;50.994;7.126;2023-04-06T04:58:58;3.90;29.70
9118;DHT22;4594;50.994;7.126;2023-04-06T05:01:23;4.00;29.70
9118;DHT22;4594;50.994;7.126;2023-04-06T05:03:49;4.00;29.70
9118;DHT22;4594;50.994;7.126;2023-04-06T05:06:15;4.00;29.70
9118;DHT22;4594;50.994;7.126;2023-04-06T05:08:41;4.00;29.60
9118;DHT22;4594;50.994;7.126;2023-04-06T05:11:08;4.10;29.70
9118;DHT22;4594;50.994;7.126;2023-04-06T05:13:34;4.10;29.60
9118;DHT22;4594;50.994;7.126;2023-04-06T05:16:00;4.20;29.70
9118;DHT22;4594;50.994;7.126;2023-04-06T05:18:26;4.20;29.70
9118;DHT22;4594;50.994;7.126;2023-04-06T05:20:52;4.20;29.70
9118;DHT22;4594;50.994;7.126;2023-04-06T05:23:18;4.30;29.70
9118;DHT22;4594;50.994;7.126;2023-04-06T05:25:44;4.30;29.70
9118;DHT22;4594;50.994;7.126;2023-04-06T05:28:09;4.30;29.70
9118;DHT22;4594;50.994;7.126;2023-04-06T05:30:35;4.40;29.70
9118;DHT22;4594;50.994;7.126;2023-04-06T05:33:01;4.40;29.70
9118;DHT22;4594;50.994;7.126;2023-04-06T05:35:27;4.40;29.70
9118;DHT22;4594;50.994;7.126;2023-04-06T05:37:53;4.50;29.70
9118;DHT22;4594;50.994;7.126;2023-04-06T05:40:18;4.50;29.70
9118;DHT22;4594;50.994;7.126;2023-04-06T05:42:44;4.60;29.70
9118;DHT22;4594;50.994;7.126;2023-04-06T05:45:11;4.60;29.70
9118;DHT22;4594;50.994;7.126;2023-04-06T05:47:42;4.70;29.80
9118;DHT22;4594;50.994;7.126;2023-04-06T05:50:09;4.70;29.80
9118;DHT22;4594;50.994;7.126;2023-04-06T05:52:36;4.80;29.80
9118;DHT22;4594;50.994;7.126;2023-04-06T05:55:02;4.80;29.80
9118;DHT22;4594;50.994;7.126;2023-04-06T05:57:28;4.90;29.90
9118;DHT22;4594;50.994;7.126;2023-04-06T05:59:54;5.10;30.10
9118;DHT22;4594;50.994;7.126;2023-04-06T06:02:21;5.30;30.20
9118;DHT22;4594;50.994;7.126;2023-04-06T06:04:47;5.50;30.60
9118;DHT22;4594;50.994;7.126;2023-04-06T06:07:14;5.80;30.80
9118;DHT22;4594;50.994;7.126;2023-04-06T06:09:40;6.10;30.90
9118;DHT22;4594;50.994;7.126;2023-04-06T06:12:06;6.40;31.10
9118;DHT22;4594;50.994;7.126;2023-04-06T06:14:32;6.70;31.20
9118;DHT22;4594;50.994;7.126;2023-04-06T06:16:58;7.10;31.50
9118;DHT22;4594;50.994;7.126;2023-04-06T06:19:23;7.40;31.50
9118;DHT22;4594;50.994;7.126;2023-04-06T06:21:49;7.80;31.70
9118;DHT22;4594;50.994;7.126;2023-04-06T06:24:15;8.20;32.00
9118;DHT22;4594;50.994;7.126;2023-04-06T06:26:41;8.50;32.10
9118;DHT22;4594;50.994;7.126;2023-04-06T06:29:07;8.90;32.20
9118;DHT22;4594;50.994;7.126;2023-04-06T06:31:33;9.30;32.30
9118;DHT22;4594;50.994;7.126;2023-04-06T06:33:58;9.60;32.30
9118;DHT22;4594;50.994;7.126;2023-04-06T06:36:25;9.90;32.50
9118;DHT22;4594;50.994;7.126;2023-04-06T06:38:51;10.30;31.50
9118;DHT22;4594;50.994;7.126;2023-04-06T06:41:17;10.70;31.80
9118;DHT22;4594;50.994;7.126;2023-04-06T06:43:43;11.00;31.80
9118;DHT22;4594;50.994;7.126;2023-04-06T06:46:08;11.30;31.90
9118;DHT22;4594;50.994;7.126;2023-04-06T06:48:34;11.70;32.10
9118;DHT22;4594;50.994;7.126;2023-04-06T06:51:00;12.10;32.20
9118;DHT22;4594;50.994;7.126;2023-04-06T06:53:26;12.50;32.30
9118;DHT22;4594;50.994;7.126;2023-04-06T06:55:52;12.80;32.40
9118;DHT22;4594;50.994;7.126;2023-04-06T06:58:18;13.10;32.40
9118;DHT22;4594;50.994;7.126;2023-04-06T07:00:45;13.50;32.60
9118;DHT22;4594;50.994;7.126;2023-04-06T07:03:11;13.80;32.40
9118;DHT22;4594;50.994;7.126;2023-04-06T07:05:37;14.10;32.50
9118;DHT22;4594;50.994;7.126;2023-04-06T07:08:03;14.40;32.60
9118;DHT22;4594;50.994;7.126;2023-04-06T07:10:29;14.60;32.80
9118;DHT22;4594;50.994;7.126;2023-04-06T07:12:54;15.00;32.80
9118;DHT22;4594;50.994;7.126;2023-04-06T07:15:20;15.30;32.90
9118;DHT22;4594;50.994;7.126;2023-04-06T07:17:46;15.70;33.20
9118;DHT22;4594;50.994;7.126;2023-04-06T07:20:12;16.00;33.20
9118;DHT22;4594;50.994;7.126;2023-04-06T07:22:39;16.40;33.40
9118;DHT22;4594;50.994;7.126;2023-04-06T07:25:05;16.70;33.30
9118;DHT22;4594;50.994;7.126;2023-04-06T07:27:31;17.20;33.60
9118;DHT22;4594;50.994;7.126;2023-04-06T07:29:57;17.60;33.70
9118;DHT22;4594;50.994;7.126;2023-04-06T07:32:25;18.00;33.80
9118;DHT22;4594;50.994;7.126;2023-04-06T07:34:51;18.30;33.60
9118;DHT22;4594;50.994;7.126;2023-04-06T07:37:17;18.70;33.40
9118;DHT22;4594;50.994;7.126;2023-04-06T07:39:43;18.90;33.30
9118;DHT22;4594;50.994;7.126;2023-04-06T07:42:08;19.10;32.80
9118;DHT22;4594;50.994;7.126;2023-04-06T07:44:34;19.40;33.30
9118;DHT22;4594;50.994;7.126;2023-04-06T07:47:00;19.70;33.40
9118;DHT22;4594;50.994;7.126;2023-04-06T07:49:26;20.10;33.40
9118;DHT22;4594;50.994;7.126;2023-04-06T07:51:51;20.40;33.50
9118;DHT22;4594;50.994;7.126;2023-04-06T07:54:17;20.70;33.60
9118;DHT22;4594;50.994;7.126;2023-04-06T07:56:43;21.10;33.80
9118;DHT22;4594;50.994;7.126;2023-04-06T07:59:08;21.40;33.90
9118;DHT22;4594;50.994;7.126;2023-04-06T08:01:36;21.80;34.00
9118;DHT22;4594;50.994;7.126;2023-04-06T08:04:02;22.20;34.00
9118;DHT22;4594;50.994;7.126;2023-04-06T08:06:28;22.50;33.90
9118;DHT22;4594;50.994;7.126;2023-04-06T08:08:54;22.70;33.60
9118;DHT22;4594;50.994;7.126;2023-04-06T08:11:20;23.00;33.50
9118;DHT22;4594;50.994;7.126;2023-04-06T08:13:46;23.10;33.30
9118;DHT22;4594;50.994;7.126;2023-04-06T08:16:11;23.30;33.30
9118;DHT22;4594;50.994;7.126;2023-04-06T08:18:37;23.50;33.40
9118;DHT22;4594;50.994;7.126;2023-04-06T08:21:03;23.70;33.50
9118;DHT22;4594;50.994;7.126;2023-04-06T08:23:29;23.90;33.70
9118;DHT22;4594;50.994;7.126;2023-04-06T08:25:54;24.20;33.50
9118;DHT22;4594;50.994;7.126;2023-04-06T08:28:21;24.30;32.90
9118;DHT22;4594;50.994;7.126;2023-04-06T08:30:47;24.30;32.60
9118;DHT22;4594;50.994;7.126;2023-04-06T08:33:13;24.40;32.40
9118;DHT22;4594;50.994;7.126;2023-04-06T08:35:39;24.30;32.20
9118;DHT22;4594;50.994;7.126;2023-04-06T08:38:05;24.20;32.10
9118;DHT22;4594;50.994;7.126;2023-04-06T08:40:39;24.20;32.10
9118;DHT22;4594;50.994;7.126;2023-04-06T08:43:10;24.20;31.60
9118;DHT22;4594;50.994;7.126;2023-04-06T08:45:40;24.20;31.80
9118;DHT22;4594;50.994;7.126;2023-04-06T08:48:07;24.40;32.60
9118;DHT22;4594;50.994;7.126;2023-04-06T08:50:35;24.60;32.90
9118;DHT22;4594;50.994;7.126;2023-04-06T08:53:03;24.90;33.00
9118;DHT22;4594;50.994;7.126;2023-04-06T08:55:29;25.00;33.10
9118;DHT22;4594;50.994;7.126;2023-04-06T08:57:55;25.20;32.40
9118;DHT22;4594;50.994;7.126;2023-04-06T09:00:21;25.10;32.00
9118;DHT22;4594;50.994;7.126;2023-04-06T09:02:49;25.10;31.80
9118;DHT22;4594;50.994;7.126;2023-04-06T09:05:19;25.00;31.60
9118;DHT22;4594;50.994;7.126;2023-04-06T09:07:46;24.90;31.50
9118;DHT22;4594;50.994;7.126;2023-04-06T09:10:12;24.70;31.10
9118;DHT22;4594;50.994;7.126;2023-04-06T09:12:38;24.50;31.00
9118;DHT22;4594;50.994;7.126;2023-04-06T09:15:04;24.30;31.00
9118;DHT22;4594;50.994;7.126;2023-04-06T09:17:32;24.20;30.90
9118;DHT22;4594;50.994;7.126;2023-04-06T09:20:00;24.00;30.60
9118;DHT22;4594;50.994;7.126;2023-04-06T09:22:38;23.80;30.50
9118;DHT22;4594;50.994;7.126;2023-04-06T09:25:05;23.70;30.00
9118;DHT22;4594;50.994;7.126;2023-04-06T09:27:33;23.50;30.60
9118;DHT22;4594;50.994;7.126;2023-04-06T09:30:07;23.40;30.50
9118;DHT22;4594;50.994;7.126;2023-04-06T09:32:48;23.30;29.80
9118;DHT22;4594;50.994;7.126;2023-04-06T09:35:16;23.20;29.60
9118;DHT22;4594;50.994;7.126;2023-04-06T09:37:43;23.10;30.30
9118;DHT22;4594;50.994;7.126;2023-04-06T09:40:09;23.00;30.40
9118;DHT22;4594;50.994;7.126;2023-04-06T09:42:36;23.00;30.40
9118;DHT22;4594;50.994;7.126;2023-04-06T09:45:02;23.00;30.40
9118;DHT22;4594;50.994;7.126;2023-04-06T09:47:30;22.90;30.30
9118;DHT22;4594;50.994;7.126;2023-04-06T09:49:59;22.90;30.40
9118;DHT22;4594;50.994;7.126;2023-04-06T09:52:33;22.90;30.50
9118;DHT22;4594;50.994;7.126;2023-04-06T09:55:05;23.00;30.00
9118;DHT22;4594;50.994;7.126;2023-04-06T10:00:09;23.10;30.10
9118;DHT22;4594;50.994;7.126;2023-04-06T10:05:57;23.40;30.80
9118;DHT22;4594;50.994;7.126;2023-04-06T10:08:28;23.70;31.00
9118;DHT22;4594;50.994;7.126;2023-04-06T10:10:54;24.00;31.80
9118;DHT22;4594;50.994;7.126;2023-04-06T10:13:21;24.20;31.90
9118;DHT22;4594;50.994;7.126;2023-04-06T10:15:49;24.50;32.10
9118;DHT22;4594;50.994;7.126;2023-04-06T10:18:17;24.70;32.10
9118;DHT22;4594;50.994;7.126;2023-04-06T10:20:49;25.00;32.20
9118;DHT22;4594;50.994;7.126;2023-04-06T10:23:33;25.30;31.90
9118;DHT22;4594;50.994;7.126;2023-04-06T10:26:02;25.50;31.40
9118;DHT22;4594;50.994;7.126;2023-04-06T10:28:34;25.70;32.20
9118;DHT22;4594;50.994;7.126;2023-04-06T10:31:04;25.90;31.60
9118;DHT22;4594;50.994;7.126;2023-04-06T10:33:31;26.10;32.10
9118;DHT22;4594;50.994;7.126;2023-04-06T10:35:57;26.20;32.00
9118;DHT22;4594;50.994;7.126;2023-04-06T10:38:37;26.30;31.80
9118;DHT22;4594;50.994;7.126;2023-04-06T10:41:04;26.40;30.40
9118;DHT22;4594;50.994;7.126;2023-04-06T10:43:33;26.30;30.90
9118;DHT22;4594;50.994;7.126;2023-04-06T10:46:04;26.10;30.50
9118;DHT22;4594;50.994;7.126;2023-04-06T10:48:42;26.00;30.90
9118;DHT22;4594;50.994;7.126;2023-04-06T10:51:16;25.90;30.20
9118;DHT22;4594;50.994;7.126;2023-04-06T10:53:45;25.80;30.50
9118;DHT22;4594;50.994;7.126;2023-04-06T10:56:20;25.60;30.60
9118;DHT22;4594;50.994;7.126;2023-04-06T10:58:49;25.50;30.20
9118;DHT22;4594;50.994;7.126;2023-04-06T11:01:19;25.30;30.30
9118;DHT22;4594;50.994;7.126;2023-04-06T11:03:48;25.20;30.20
9118;DHT22;4594;50.994;7.126;2023-04-06T11:06:21;25.00;30.00
9118;DHT22;4594;50.994;7.126;2023-04-06T11:08:51;24.80;29.90
9118;DHT22;4594;50.994;7.126;2023-04-06T11:11:19;24.50;29.70
9118;DHT22;4594;50.994;7.126;2023-04-06T11:13:50;24.20;29.50
9118;DHT22;4594;50.994;7.126;2023-04-06T11:16:22;24.00;29.30
9118;DHT22;4594;50.994;7.126;2023-04-06T11:18:53;23.70;29.30
9118;DHT22;4594;50.994;7.126;2023-04-06T11:21:35;23.40;29.20
9118;DHT22;4594;50.994;7.126;2023-04-06T11:26:57;23.00;28.70
9118;DHT22;4594;50.994;7.126;2023-04-06T11:29:26;22.80;29.10
9118;DHT22;4594;50.994;7.126;2023-04-06T11:32:01;22.60;29.30
9118;DHT22;4594;50.994;7.126;2023-04-06T11:34:30;22.40;29.20
9118;DHT22;4594;50.994;7.126;2023-04-06T11:37:03;22.30;29.40
9118;DHT22;4594;50.994;7.126;2023-04-06T11:39:42;22.20;29.50
9118;DHT22;4594;50.994;7.126;2023-04-06T11:42:12;22.20;29.30
9118;DHT22;4594;50.994;7.126;2023-04-06T11:44:39;22.10;29.60
9118;DHT22;4594;50.994;7.126;2023-04-06T11:47:11;22.10;29.60
9118;DHT22;4594;50.994;7.126;2023-04-06T11:49:38;22.10;29.70
9118;DHT22;4594;50.994;7.126;2023-04-06T11:52:22;22.10;29.60
9118;DHT22;4594;50.994;7.126;2023-04-06T11:54:51;22.00;29.00
9118;DHT22;4594;50.994;7.126;2023-04-06T11:57:19;22.00;29.50
9118;DHT22;4594;50.994;7.126;2023-04-06T11:59:46;21.90;29.40
9118;DHT22;4594;50.994;7.126;2023-04-06T12:02:12;21.90;29.40
9118;DHT22;4594;50.994;7.126;2023-04-06T12:04:37;21.90;29.50
9118;DHT22;4594;50.994;7.126;2023-04-06T12:07:04;21.80;29.40
9118;DHT22;4594;50.994;7.126;2023-04-06T12:09:30;21.70;29.30
9118;DHT22;4594;50.994;7.126;2023-04-06T12:11:56;21.70;29.10
9118;DHT22;4594;50.994;7.126;2023-04-06T12:14:23;21.40;29.00
9118;DHT22;4594;50.994;7.126;2023-04-06T12:16:48;21.40;28.90
9118;DHT22;4594;50.994;7.126;2023-04-06T12:19:14;21.30;29.00
9118;DHT22;4594;50.994;7.126;2023-04-06T12:21:40;21.20;29.30
9118;DHT22;4594;50.994;7.126;2023-04-06T12:24:06;21.00;29.00
9118;DHT22;4594;50.994;7.126;2023-04-06T12:26:32;21.00;29.10
9118;DHT22;4594;50.994;7.126;2023-04-06T12:29:01;20.90;28.90
9118;DHT22;4594;50.994;7.126;2023-04-06T12:31:32;20.80;28.70
9118;DHT22;4594;50.994;7.126;2023-04-06T12:34:00;20.60;28.70
9118;DHT22;4594;50.994;7.126;2023-04-06T12:36:28;20.50;28.70
9118;DHT22;4594;50.994;7.126;2023-04-06T12:38:54;20.30;28.70
9118;DHT22;4594;50.994;7.126;2023-04-06T12:41:20;20.30;28.70
9118;DHT22;4594;50.994;7.126;2023-04-06T12:43:46;20.20;28.70
9118;DHT22;4594;50.994;7.126;2023-04-06T12:46:14;20.10;28.60
9118;DHT22;4594;50.994;7.126;2023-04-06T12:48:40;20.00;28.70
9118;DHT22;4594;50.994;7.126;2023-04-06T12:51:06;19.90;28.70
9118;DHT22;4594;50.994;7.126;2023-04-06T12:53:33;19.80;28.70
9118;DHT22;4594;50.994;7.126;2023-04-06T12:56:00;19.80;28.80
9118;DHT22;4594;50.994;7.126;2023-04-06T12:58:27;19.70;28.70
9118;DHT22;4594;50.994;7.126;2023-04-06T13:00:54;19.60;28.60
9118;DHT22;4594;50.994;7.126;2023-04-06T13:03:21;19.60;28.60
9118;DHT22;4594;50.994;7.126;2023-04-06T13:05:51;19.60;28.60
9118;DHT22;4594;50.994;7.126;2023-04-06T13:08:18;19.50;28.60
9118;DHT22;4594;50.994;7.126;2023-04-06T13:10:47;19.50;28.70
9118;DHT22;4594;50.994;7.126;2023-04-06T13:13:15;19.50;28.60
9118;DHT22;4594;50.994;7.126;2023-04-06T13:15:41;19.40;28.60
9118;DHT22;4594;50.994;7.126;2023-04-06T13:18:07;19.40;28.60
9118;DHT22;4594;50.994;7.126;2023-04-06T13:20:34;19.40;28.70
9118;DHT22;4594;50.994;7.126;2023-04-06T13:23:01;19.40;28.70
9118;DHT22;4594;50.994;7.126;2023-04-06T13:25:26;19.40;28.70
9118;DHT22;4594;50.994;7.126;2023-04-06T13:27:53;19.40;28.70
9118;DHT22;4594;50.994;7.126;2023-04-06T13:30:19;19.40;28.80
9118;DHT22;4594;50.994;7.126;2023-04-06T13:32:45;19.40;28.80
9118;DHT22;4594;50.994;7.126;2023-04-06T13:35:11;19.40;28.70
9118;DHT22;4594;50.994;7.126;2023-04-06T13:37:38;19.30;28.60
9118;DHT22;4594;50.994;7.126;2023-04-06T13:40:04;19.30;28.70
9118;DHT22;4594;50.994;7.126;2023-04-06T13:42:31;19.20;28.70
9118;DHT22;4594;50.994;7.126;2023-04-06T13:44:58;19.20;28.70
9118;DHT22;4594;50.994;7.126;2023-04-06T13:47:24;19.10;28.70
9118;DHT22;4594;50.994;7.126;2023-04-06T13:49:50;19.10;28.80
9118;DHT22;4594;50.994;7.126;2023-04-06T13:52:19;19.10;28.80
9118;DHT22;4594;50.994;7.126;2023-04-06T13:54:45;19.00;28.80
9118;DHT22;4594;50.994;7.126;2023-04-06T13:57:11;19.00;28.80
9118;DHT22;4594;50.994;7.126;2023-04-06T13:59:38;18.90;28.70
9118;DHT22;4594;50.994;7.126;2023-04-06T14:02:06;18.90;28.80
9118;DHT22;4594;50.994;7.126;2023-04-06T14:04:33;18.90;28.80
9118;DHT22;4594;50.994;7.126;2023-04-06T14:07:00;18.80;28.70
9118;DHT22;4594;50.994;7.126;2023-04-06T14:09:28;18.70;28.60
9118;DHT22;4594;50.994;7.126;2023-04-06T14:11:54;18.60;28.70
9118;DHT22;4594;50.994;7.126;2023-04-06T14:14:20;18.50;28.40
9118;DHT22;4594;50.994;7.126;2023-04-06T14:16:47;18.30;28.40
9118;DHT22;4594;50.994;7.126;2023-04-06T14:19:15;18.20;28.40
9118;DHT22;4594;50.994;7.126;2023-04-06T14:21:46;18.10;28.50
9118;DHT22;4594;50.994;7.126;2023-04-06T14:24:13;17.90;28.40
9118;DHT22;4594;50.994;7.126;2023-04-06T14:26:40;17.80;28.50
9118;DHT22;4594;50.994;7.126;2023-04-06T14:29:09;17.80;28.60
9118;DHT22;4594;50.994;7.126;2023-04-06T14:31:35;17.60;28.50
9118;DHT22;4594;50.994;7.126;2023-04-06T14:34:02;17.50;28.60
9118;DHT22;4594;50.994;7.126;2023-04-06T14:36:31;17.40;28.60
9118;DHT22;4594;50.994;7.126;2023-04-06T14:39:03;17.30;28.70
9118;DHT22;4594;50.994;7.126;2023-04-06T14:41:32;17.10;28.70
9118;DHT22;4594;50.994;7.126;2023-04-06T14:43:59;17.00;28.70
9118;DHT22;4594;50.994;7.126;2023-04-06T14:46:25;16.80;28.70
9118;DHT22;4594;50.994;7.126;2023-04-06T14:48:55;16.70;28.70
9118;DHT22;4594;50.994;7.126;2023-04-06T14:51:24;16.60;28.70
9118;DHT22;4594;50.994;7.126;2023-04-06T14:53:50;16.40;28.60
9118;DHT22;4594;50.994;7.126;2023-04-06T14:56:20;16.30;28.60
9118;DHT22;4594;50.994;7.126;2023-04-06T14:59:00;16.20;28.60
9118;DHT22;4594;50.994;7.126;2023-04-06T15:01:27;16.10;28.60
9118;DHT22;4594;50.994;7.126;2023-04-06T15:03:53;16.00;28.70
9118;DHT22;4594;50.994;7.126;2023-04-06T15:06:19;15.90;28.70
9118;DHT22;4594;50.994;7.126;2023-04-06T15:08:46;15.70;28.80
9118;DHT22;4594;50.994;7.126;2023-04-06T15:11:12;15.70;28.80
9118;DHT22;4594;50.994;7.126;2023-04-06T15:13:39;15.60;28.90
9118;DHT22;4594;50.994;7.126;2023-04-06T15:16:06;15.50;28.90
9118;DHT22;4594;50.994;7.126;2023-04-06T15:18:33;15.50;29.10
9118;DHT22;4594;50.994;7.126;2023-04-06T15:20:59;15.40;29.10
9118;DHT22;4594;50.994;7.126;2023-04-06T15:23:25;15.40;29.20
9118;DHT22;4594;50.994;7.126;2023-04-06T15:25:55;15.30;29.20
9118;DHT22;4594;50.994;7.126;2023-04-06T15:28:21;15.30;29.30
9118;DHT22;4594;50.994;7.126;2023-04-06T15:30:47;15.20;29.30
9118;DHT22;4594;50.994;7.126;2023-04-06T15:33:12;15.20;29.40
9118;DHT22;4594;50.994;7.126;2023-04-06T15:35:38;15.10;29.40
9118;DHT22;4594;50.994;7.126;2023-04-06T15:38:05;15.10;29.60
9118;DHT22;4594;50.994;7.126;2023-04-06T15:40:32;15.00;29.50
9118;DHT22;4594;50.994;7.126;2023-04-06T15:42:57;15.00;29.60
9118;DHT22;4594;50.994;7.126;2023-04-06T15:45:23;14.90;29.60
9118;DHT22;4594;50.994;7.126;2023-04-06T15:47:49;14.80;29.50
9118;DHT22;4594;50.994;7.126;2023-04-06T15:50:15;14.70;29.60
9118;DHT22;4594;50.994;7.126;2023-04-06T15:52:41;14.60;29.60
9118;DHT22;4594;50.994;7.126;2023-04-06T15:55:07;14.50;29.70
9118;DHT22;4594;50.994;7.126;2023-04-06T15:57:34;14.40;29.80
9118;DHT22;4594;50.994;7.126;2023-04-06T16:00:00;14.40;29.90
9118;DHT22;4594;50.994;7.126;2023-04-06T16:02:27;14.30;30.00
9118;DHT22;4594;50.994;7.126;2023-04-06T16:04:57;14.20;30.00
9118;DHT22;4594;50.994;7.126;2023-04-06T16:07:23;14.10;30.10
9118;DHT22;4594;50.994;7.126;2023-04-06T16:09:50;14.00;30.30
9118;DHT22;4594;50.994;7.126;2023-04-06T16:12:16;13.90;30.10
9118;DHT22;4594;50.994;7.126;2023-04-06T16:14:43;13.90;30.30